createdAt,value
2023-08-17T00:01:19.358Z,30.49
2023-08-17T00:03:48.689Z,30.48
2023-08-17T00:06:17.994Z,30.37
2023-08-17T00:08:47.600Z,30.21
2023-08-17T00:11:16.916Z,30.20
2023-08-17T00:13:46.995Z,30.24
2023-08-17T00:16:16.454Z,30.20
2023-08-17T00:18:45.870Z,30.18
2023-08-17T00:21:14.856Z,30.14
2023-08-17T00:23:44.156Z,30.06
2023-08-17T00:26:13.463Z,30.01
2023-08-17T00:28:42.714Z,30.04
2023-08-17T00:31:12.790Z,30.03
2023-08-17T00:33:42.230Z,29.94
2023-08-17T00:36:11.604Z,29.85
2023-08-17T00:38:40.861Z,29.77
2023-08-17T00:41:10.665Z,29.79
2023-08-17T00:43:40.647Z,29.77
2023-08-17T00:46:10.724Z,29.78
2023-08-17T00:48:40.468Z,29.78
2023-08-17T00:51:09.918Z,29.73
2023-08-17T00:53:39.373Z,29.77
2023-08-17T00:56:09.458Z,29.80
2023-08-17T00:58:39.177Z,29.84
2023-08-17T01:01:09.026Z,29.85
2023-08-17T01:03:39.027Z,29.84
2023-08-17T01:06:08.502Z,29.82
2023-08-17T01:08:40.119Z,29.77
2023-08-17T01:11:28.783Z,29.64
2023-08-17T01:14:07.457Z,29.54
2023-08-17T01:16:53.304Z,29.53
2023-08-17T01:19:30.418Z,29.50
2023-08-17T01:22:08.445Z,29.34
2023-08-17T01:24:38.192Z,29.19
2023-08-17T01:27:07.970Z,29.00
2023-08-17T01:29:37.428Z,28.80
2023-08-17T01:32:21.862Z,28.71
2023-08-17T01:35:02.463Z,28.72
2023-08-17T01:37:35.208Z,28.68
2023-08-17T01:40:05.300Z,28.66
2023-08-17T01:42:35.946Z,28.58
2023-08-17T01:45:05.642Z,28.48
2023-08-17T01:47:35.515Z,28.35
2023-08-17T01:50:04.938Z,28.25
2023-08-17T01:52:34.631Z,28.12
2023-08-17T01:55:04.105Z,28.04
2023-08-17T01:57:33.785Z,27.92
2023-08-17T02:00:04.014Z,27.77
2023-08-17T02:02:33.792Z,27.72
2023-08-17T02:05:03.455Z,27.66
2023-08-17T02:07:32.937Z,27.65
2023-08-17T02:10:02.385Z,27.62
2023-08-17T02:12:32.184Z,27.61
2023-08-17T02:15:02.128Z,27.58
2023-08-17T02:17:31.744Z,27.51
2023-08-17T02:20:01.462Z,27.41
2023-08-17T02:22:31.133Z,27.37
2023-08-17T02:25:00.966Z,27.25
2023-08-17T02:27:33.540Z,27.17
2023-08-17T02:30:03.339Z,27.08
2023-08-17T02:32:33.459Z,27.04
2023-08-17T02:35:02.839Z,26.97
2023-08-17T02:37:32.622Z,26.90
2023-08-17T02:40:02.352Z,26.80
2023-08-17T02:42:31.850Z,26.75
2023-08-17T02:45:01.570Z,26.72
2023-08-17T02:47:31.399Z,26.73
2023-08-17T02:50:01.458Z,26.71
2023-08-17T02:52:31.221Z,26.64
2023-08-17T02:55:00.648Z,26.48
2023-08-17T02:57:30.418Z,26.34
2023-08-17T02:59:59.376Z,26.25
2023-08-17T03:02:29.384Z,26.22
2023-08-17T03:04:59.305Z,26.15
2023-08-17T03:07:28.896Z,26.12
2023-08-17T03:09:58.253Z,26.11
2023-08-17T03:12:27.934Z,26.09
2023-08-17T03:14:57.470Z,26.06
2023-08-17T03:17:27.509Z,26.00
2023-08-17T03:20:05.910Z,25.95
2023-08-17T03:22:36.325Z,25.84
2023-08-17T03:25:06.287Z,25.71
2023-08-17T03:27:35.606Z,25.67
2023-08-17T03:30:05.304Z,25.59
2023-08-17T03:32:34.758Z,25.52
2023-08-17T03:35:04.368Z,25.39
2023-08-17T03:37:33.785Z,25.32
2023-08-17T03:40:02.902Z,25.22
2023-08-17T03:42:32.168Z,25.10
2023-08-17T03:45:01.556Z,25.06
2023-08-17T03:47:31.081Z,25.06
2023-08-17T03:50:00.783Z,25.03
2023-08-17T03:52:30.070Z,25.03
2023-08-17T03:54:59.678Z,25.00
2023-08-17T03:57:30.173Z,24.99
2023-08-17T04:00:00.692Z,24.99
2023-08-17T04:02:30.433Z,25.03
2023-08-17T04:05:00.031Z,25.04
2023-08-17T04:07:29.799Z,24.97
2023-08-17T04:09:59.815Z,24.95
2023-08-17T04:12:29.249Z,24.97
2023-08-17T04:14:58.742Z,24.99
2023-08-17T04:17:28.774Z,25.01
2023-08-17T04:19:58.816Z,24.96
2023-08-17T04:22:28.261Z,24.91
2023-08-17T04:24:58.642Z,24.83
2023-08-17T04:27:28.360Z,24.78
2023-08-17T04:29:58.229Z,24.70
2023-08-17T04:32:27.987Z,24.61
2023-08-17T04:34:57.642Z,24.51
2023-08-17T04:37:27.496Z,24.47
2023-08-17T04:39:57.308Z,24.48
2023-08-17T04:42:27.710Z,24.47
2023-08-17T04:44:57.319Z,24.48
2023-08-17T04:47:27.467Z,24.52
2023-08-17T04:49:57.510Z,24.45
2023-08-17T04:52:27.357Z,24.43
2023-08-17T04:54:57.023Z,24.42
2023-08-17T04:57:27.162Z,24.39
2023-08-17T04:59:57.478Z,24.38
2023-08-17T05:02:27.308Z,24.35
2023-08-17T05:04:55.994Z,24.27
2023-08-17T05:07:25.558Z,24.25
2023-08-17T05:09:55.126Z,24.26
2023-08-17T05:12:23.854Z,24.20
2023-08-17T05:14:52.850Z,24.20
2023-08-17T05:17:22.594Z,24.18
2023-08-17T05:19:52.140Z,24.13
2023-08-17T05:22:21.477Z,24.09
2023-08-17T05:24:51.380Z,24.08
2023-08-17T05:27:21.141Z,24.02
2023-08-17T05:29:50.877Z,23.96
2023-08-17T05:32:20.638Z,23.92
2023-08-17T05:34:50.879Z,23.93
2023-08-17T05:37:20.438Z,23.93
2023-08-17T05:39:50.218Z,23.86
2023-08-17T05:42:19.970Z,23.87
2023-08-17T05:44:49.752Z,23.90
2023-08-17T05:47:20.649Z,23.92
2023-08-17T05:49:49.741Z,23.89
2023-08-17T05:52:19.212Z,23.89
2023-08-17T05:54:47.844Z,23.88
2023-08-17T05:57:16.832Z,23.87
2023-08-17T05:59:46.041Z,23.84
2023-08-17T06:02:15.030Z,23.82
2023-08-17T06:04:44.211Z,23.81
2023-08-17T06:07:13.737Z,23.80
2023-08-17T06:09:43.427Z,23.76
2023-08-17T06:12:12.960Z,23.75
2023-08-17T06:14:43.000Z,23.75
2023-08-17T06:17:12.796Z,23.74
2023-08-17T06:19:42.570Z,23.76
2023-08-17T06:22:12.204Z,23.72
2023-08-17T06:24:42.072Z,23.71
2023-08-17T06:27:11.801Z,23.65
2023-08-17T06:29:41.496Z,23.61
2023-08-17T06:32:11.323Z,23.54
2023-08-17T06:34:40.825Z,23.50
2023-08-17T06:37:09.426Z,23.48
2023-08-17T06:39:39.052Z,23.49
2023-08-17T06:42:08.351Z,23.51
2023-08-17T06:44:37.280Z,23.54
2023-08-17T06:47:06.391Z,23.58
2023-08-17T06:49:35.692Z,23.58
2023-08-17T06:52:04.998Z,23.58
2023-08-17T06:54:34.655Z,23.55
2023-08-17T06:57:04.651Z,23.54
2023-08-17T06:59:35.656Z,23.52
2023-08-17T07:02:04.951Z,23.52
2023-08-17T07:04:35.063Z,23.51
2023-08-17T07:07:04.172Z,23.49
2023-08-17T07:09:33.526Z,23.50
2023-08-17T07:12:03.020Z,23.46
2023-08-17T07:14:32.749Z,23.47
2023-08-17T07:17:02.524Z,23.46
2023-08-17T07:19:57.771Z,23.44
2023-08-17T07:22:21.585Z,23.40
2023-08-17T07:24:50.982Z,23.32
2023-08-17T07:27:20.526Z,23.29
2023-08-17T07:29:49.891Z,23.24
2023-08-17T07:32:18.881Z,23.21
2023-08-17T07:34:47.518Z,23.16
2023-08-17T07:37:16.891Z,23.13
2023-08-17T07:39:46.504Z,23.09
2023-08-17T07:42:16.182Z,23.06
2023-08-17T07:44:46.237Z,23.03
2023-08-17T07:47:15.935Z,22.94
2023-08-17T07:49:46.976Z,22.88
2023-08-17T07:52:16.811Z,22.87
2023-08-17T07:54:46.406Z,22.87
2023-08-17T07:57:15.636Z,22.86
2023-08-17T07:59:45.662Z,22.85
2023-08-17T08:02:15.541Z,22.82
2023-08-17T08:04:44.866Z,22.78
2023-08-17T08:07:14.409Z,22.75
2023-08-17T08:09:43.663Z,22.74
2023-08-17T08:12:13.594Z,22.71
2023-08-17T08:14:42.767Z,22.68
2023-08-17T08:17:12.162Z,22.67
2023-08-17T08:19:42.183Z,22.64
2023-08-17T08:22:11.699Z,22.61
2023-08-17T08:24:45.232Z,22.59
2023-08-17T08:27:15.056Z,22.56
2023-08-17T08:29:44.793Z,22.57
2023-08-17T08:32:14.466Z,22.56
2023-08-17T08:34:44.334Z,22.54
2023-08-17T08:37:13.727Z,22.53
2023-08-17T08:39:56.985Z,22.47
2023-08-17T08:42:28.903Z,22.44
2023-08-17T08:44:59.314Z,22.42
2023-08-17T08:47:30.096Z,22.40
2023-08-17T08:50:05.234Z,22.38
2023-08-17T08:52:39.466Z,22.36
2023-08-17T08:55:22.068Z,22.33
2023-08-17T08:57:53.075Z,22.32
2023-08-17T09:00:23.536Z,22.32
2023-08-17T09:02:53.649Z,22.30
2023-08-17T09:05:25.584Z,22.30
2023-08-17T09:07:55.517Z,22.27
2023-08-17T09:10:25.152Z,22.26
2023-08-17T09:12:54.886Z,22.24
2023-08-17T09:15:24.868Z,22.21
2023-08-17T09:17:54.776Z,22.17
2023-08-17T09:20:48.359Z,22.12
2023-08-17T09:23:22.409Z,22.12
2023-08-17T09:28:34.715Z,22.05
2023-08-17T09:31:08.691Z,22.03
2023-08-17T09:33:38.382Z,21.98
2023-08-17T09:36:08.430Z,21.96
2023-08-17T09:38:37.913Z,21.94
2023-08-17T09:41:09.312Z,21.91
2023-08-17T09:43:39.562Z,21.88
2023-08-17T09:46:10.131Z,21.84
2023-08-17T09:48:39.805Z,21.81
2023-08-17T09:51:09.892Z,21.83
2023-08-17T09:53:42.185Z,21.82
2023-08-17T09:58:46.452Z,21.79
2023-08-17T10:01:16.647Z,21.78
2023-08-17T10:03:52.703Z,21.76
2023-08-17T10:06:29.584Z,21.72
2023-08-17T10:09:01.629Z,21.70
2023-08-17T10:11:36.453Z,21.71
2023-08-17T10:14:15.063Z,21.69
2023-08-17T10:16:57.392Z,21.68
2023-08-17T10:19:41.479Z,21.67
2023-08-17T10:22:23.208Z,21.67
2023-08-17T10:24:54.058Z,21.63
2023-08-17T10:27:23.984Z,21.59
2023-08-17T10:29:55.632Z,21.57
2023-08-17T10:32:26.945Z,21.56
2023-08-17T10:34:58.047Z,21.55
2023-08-17T10:37:27.337Z,21.56
2023-08-17T10:39:56.969Z,21.55
2023-08-17T10:42:37.914Z,21.54
2023-08-17T10:45:30.248Z,21.53
2023-08-17T10:48:12.674Z,21.51
2023-08-17T10:50:43.426Z,21.48
2023-08-17T10:53:15.351Z,21.43
2023-08-17T10:55:52.685Z,21.41
2023-08-17T10:58:21.824Z,21.36
2023-08-17T11:00:56.464Z,21.30
2023-08-17T11:05:58.825Z,21.20
2023-08-17T11:08:43.327Z,21.21
2023-08-17T11:11:15.286Z,21.21
2023-08-17T11:13:46.340Z,21.17
2023-08-17T11:16:18.474Z,21.12
2023-08-17T11:18:54.821Z,21.02
2023-08-17T11:21:23.474Z,20.91
2023-08-17T11:23:52.223Z,20.84
2023-08-17T11:26:21.724Z,20.84
2023-08-17T11:28:50.348Z,20.85
2023-08-17T11:31:18.899Z,20.83
2023-08-17T11:33:48.913Z,20.80
2023-08-17T11:36:17.572Z,20.82
2023-08-17T11:38:46.365Z,20.86
2023-08-17T11:41:19.300Z,20.84
2023-08-17T11:43:49.269Z,20.82
2023-08-17T11:46:19.049Z,20.81
2023-08-17T11:48:48.381Z,20.75
2023-08-17T11:51:17.061Z,20.72
2023-08-17T11:53:49.237Z,20.74
2023-08-17T11:56:19.309Z,20.69
2023-08-17T11:58:51.049Z,20.70
2023-08-17T12:01:19.836Z,20.65
2023-08-17T12:03:51.163Z,20.65
2023-08-17T12:06:19.883Z,20.67
2023-08-17T12:08:50.074Z,20.68
2023-08-17T12:11:22.426Z,20.67
2023-08-17T12:13:54.952Z,20.61
2023-08-17T12:16:25.336Z,20.52
2023-08-17T12:18:55.062Z,20.45
2023-08-17T12:21:28.253Z,20.43
2023-08-17T12:23:56.789Z,20.43
2023-08-17T12:26:25.467Z,20.45
2023-08-17T12:28:54.494Z,20.43
2023-08-17T12:31:26.001Z,20.41
2023-08-17T12:33:54.862Z,20.39
2023-08-17T12:36:23.621Z,20.38
2023-08-17T12:38:52.155Z,20.37
2023-08-17T12:41:22.314Z,20.31
2023-08-17T12:43:51.163Z,20.32
2023-08-17T12:46:22.209Z,20.33
2023-08-17T12:48:52.020Z,20.35
2023-08-17T12:51:21.433Z,20.34
2023-08-17T12:53:50.863Z,20.31
2023-08-17T12:56:19.693Z,20.27
2023-08-17T12:58:48.263Z,20.26
2023-08-17T13:01:17.010Z,20.25
2023-08-17T13:03:45.499Z,20.25
2023-08-17T13:06:13.946Z,20.22
2023-08-17T13:08:42.457Z,20.18
2023-08-17T13:11:11.431Z,20.18
2023-08-17T13:13:39.996Z,20.17
2023-08-17T13:16:08.587Z,20.17
2023-08-17T13:18:37.109Z,20.18
2023-08-17T13:21:05.912Z,20.16
2023-08-17T13:23:34.729Z,20.16
2023-08-17T13:26:03.329Z,20.14
2023-08-17T13:28:31.856Z,20.13
2023-08-17T13:31:10.712Z,20.11
2023-08-17T13:33:46.771Z,20.10
2023-08-17T13:36:15.406Z,20.10
2023-08-17T13:38:45.175Z,20.08
2023-08-17T13:41:14.341Z,20.09
2023-08-17T13:43:43.294Z,20.08
2023-08-17T13:46:11.841Z,20.06
2023-08-17T13:48:41.585Z,20.04
2023-08-17T13:51:10.195Z,20.03
2023-08-17T13:53:38.895Z,19.95
2023-08-17T13:56:07.386Z,19.89
2023-08-17T13:58:35.928Z,19.86
2023-08-17T14:01:04.622Z,19.85
2023-08-17T14:03:33.204Z,19.86
2023-08-17T14:06:01.869Z,19.88
2023-08-17T14:08:30.424Z,19.92
2023-08-17T14:10:59.290Z,19.99
2023-08-17T14:13:28.444Z,20.00
2023-08-17T14:16:00.214Z,20.03
2023-08-17T14:18:29.602Z,20.04
2023-08-17T14:20:59.360Z,20.06
2023-08-17T14:23:28.849Z,20.07
2023-08-17T14:25:58.192Z,20.09
2023-08-17T14:28:29.280Z,20.12
2023-08-17T14:30:59.029Z,20.12
2023-08-17T14:33:28.793Z,20.13
2023-08-17T14:35:58.219Z,20.16
2023-08-17T14:38:31.688Z,20.18
2023-08-17T14:41:01.913Z,20.23
2023-08-17T14:43:31.671Z,20.28
2023-08-17T14:46:01.158Z,20.36
2023-08-17T14:48:31.103Z,20.41
2023-08-17T14:51:00.683Z,20.46
2023-08-17T14:53:30.404Z,20.50
2023-08-17T14:55:59.143Z,20.57
2023-08-17T14:58:28.278Z,20.68
2023-08-17T15:00:57.131Z,20.74
2023-08-17T15:03:26.919Z,20.81
2023-08-17T15:05:56.483Z,20.87
2023-08-17T15:08:25.958Z,20.93
2023-08-17T15:10:55.836Z,20.97
2023-08-17T15:13:25.293Z,21.01
2023-08-17T15:15:54.195Z,21.05
2023-08-17T15:18:24.652Z,21.11
2023-08-17T15:20:53.617Z,21.14
2023-08-17T15:23:22.664Z,21.13
2023-08-17T15:25:52.198Z,21.09
2023-08-17T15:28:21.865Z,21.11
2023-08-17T15:31:04.167Z,21.07
2023-08-17T15:33:33.864Z,21.05
2023-08-17T15:36:03.356Z,21.04
2023-08-17T15:38:33.070Z,21.08
2023-08-17T15:41:02.901Z,21.18
2023-08-17T15:43:32.573Z,21.24
2023-08-17T15:46:02.178Z,21.32
2023-08-17T15:48:32.118Z,21.41
2023-08-17T15:51:01.905Z,21.50
2023-08-17T15:53:31.750Z,21.57
2023-08-17T15:56:01.693Z,21.64
2023-08-17T15:58:31.152Z,21.67
2023-08-17T16:01:00.985Z,21.70
2023-08-17T16:03:29.968Z,21.74
2023-08-17T16:05:59.762Z,21.81
2023-08-17T16:08:47.526Z,21.92
2023-08-17T16:11:18.860Z,22.04
2023-08-17T16:13:48.578Z,22.13
2023-08-17T16:16:17.692Z,22.20
2023-08-17T16:18:47.073Z,22.26
2023-08-17T16:21:16.622Z,22.31
2023-08-17T16:23:45.851Z,22.38
2023-08-17T16:26:16.134Z,22.45
2023-08-17T16:31:20.883Z,22.64
2023-08-17T16:33:50.487Z,22.73
2023-08-17T16:36:20.363Z,22.81
2023-08-17T16:41:24.573Z,22.90
2023-08-17T16:43:54.107Z,22.95
2023-08-17T16:46:24.652Z,23.02
2023-08-17T16:48:54.142Z,22.95
2023-08-17T16:51:23.951Z,22.99
2023-08-17T16:53:53.747Z,23.06
2023-08-17T16:56:24.123Z,23.08
2023-08-17T16:58:53.945Z,23.17
2023-08-17T17:01:23.635Z,23.20
2023-08-17T17:03:53.396Z,23.23
2023-08-17T17:06:23.862Z,23.28
2023-08-17T17:08:52.949Z,23.38
2023-08-17T17:11:23.066Z,23.49
2023-08-17T17:13:52.120Z,23.63
2023-08-17T17:16:23.100Z,23.69
2023-08-17T17:18:53.564Z,23.73
2023-08-17T17:21:22.877Z,23.75
2023-08-17T17:23:52.129Z,23.77
2023-08-17T17:26:23.216Z,23.83
2023-08-17T17:28:52.358Z,23.88
2023-08-17T17:31:21.225Z,23.99
2023-08-17T17:33:50.556Z,24.12
2023-08-17T17:36:20.331Z,24.30
2023-08-17T17:38:49.644Z,24.43
2023-08-17T17:41:19.434Z,24.53
2023-08-17T17:43:49.731Z,24.70
2023-08-17T17:46:21.585Z,24.76
2023-08-17T17:48:50.941Z,24.80
2023-08-17T17:51:19.998Z,24.91
2023-08-17T17:53:49.258Z,24.99
2023-08-17T17:56:18.394Z,25.07
2023-08-17T17:58:47.201Z,25.17
2023-08-17T18:01:17.003Z,25.26
2023-08-17T18:03:47.986Z,25.40
2023-08-17T18:06:18.049Z,25.48
2023-08-17T18:08:47.504Z,25.55
2023-08-17T18:11:16.735Z,25.63
2023-08-17T18:13:46.036Z,25.68
2023-08-17T18:16:15.106Z,25.76
2023-08-17T18:18:44.221Z,25.87
2023-08-17T18:21:13.404Z,25.99
2023-08-17T18:23:42.801Z,26.08
2023-08-17T18:26:12.146Z,26.11
2023-08-17T18:28:41.454Z,26.19
2023-08-17T18:31:11.562Z,26.30
2023-08-17T18:33:40.288Z,26.43
2023-08-17T18:36:10.035Z,26.45
2023-08-17T18:38:39.783Z,26.57
2023-08-17T18:41:12.789Z,26.74
2023-08-17T18:43:42.138Z,26.83
2023-08-17T18:46:12.029Z,26.90
2023-08-17T18:48:41.734Z,27.02
2023-08-17T18:51:11.520Z,27.12
2023-08-17T18:53:40.986Z,27.26
2023-08-17T18:56:10.363Z,27.34
2023-08-17T18:58:39.533Z,27.44
2023-08-17T19:01:08.054Z,27.54
2023-08-17T19:03:36.785Z,27.68
2023-08-17T19:06:05.680Z,27.78
2023-08-17T19:08:34.599Z,27.85
2023-08-17T19:11:03.290Z,27.92
2023-08-17T19:13:32.387Z,27.95
2023-08-17T19:16:01.212Z,28.07
2023-08-17T19:18:30.070Z,28.22
2023-08-17T19:20:58.901Z,28.36
2023-08-17T19:23:27.719Z,28.48
2023-08-17T19:25:56.903Z,28.58
2023-08-17T19:28:25.646Z,28.74
2023-08-17T19:30:54.412Z,28.87
2023-08-17T19:33:23.169Z,28.93
2023-08-17T19:35:52.184Z,28.99
2023-08-17T19:38:20.916Z,29.07
2023-08-17T19:40:49.746Z,29.17
2023-08-17T19:43:18.513Z,29.33
2023-08-17T19:45:47.570Z,29.45
2023-08-17T19:48:16.310Z,29.52
2023-08-17T19:50:45.641Z,29.50
2023-08-17T19:53:15.053Z,29.60
2023-08-17T19:55:44.516Z,29.62
2023-08-17T19:58:15.188Z,29.69
2023-08-17T20:00:44.692Z,29.84
2023-08-17T20:03:14.478Z,29.97
2023-08-17T20:05:44.028Z,30.12
2023-08-17T20:08:13.819Z,30.08
2023-08-17T20:10:43.839Z,30.13
2023-08-17T20:13:13.434Z,30.22
2023-08-17T20:15:43.090Z,30.28
2023-08-17T20:18:13.956Z,30.38
2023-08-17T20:20:57.898Z,30.50
2023-08-17T20:23:27.835Z,30.64
2023-08-17T20:25:57.923Z,30.69
2023-08-17T20:28:28.774Z,30.81
2023-08-17T20:31:00.614Z,30.92
2023-08-17T20:33:30.421Z,30.91
2023-08-17T20:35:59.912Z,30.97
2023-08-17T20:38:29.146Z,30.99
2023-08-17T20:40:58.927Z,31.07
2023-08-17T20:43:28.692Z,31.23
2023-08-17T20:45:58.255Z,31.45
2023-08-17T20:48:27.195Z,31.47
2023-08-17T20:50:57.568Z,31.56
2023-08-17T20:53:29.982Z,31.59
2023-08-17T20:55:59.773Z,31.67
2023-08-17T20:58:28.538Z,31.61
2023-08-17T21:00:57.339Z,31.76
2023-08-17T21:03:26.161Z,31.97
2023-08-17T21:05:55.274Z,32.09
2023-08-17T21:08:23.990Z,32.08
2023-08-17T21:10:52.766Z,32.08
2023-08-17T21:13:22.100Z,32.06
2023-08-17T21:15:50.857Z,32.00
2023-08-17T21:18:21.336Z,31.93
2023-08-17T21:20:50.034Z,32.01
2023-08-17T21:23:18.589Z,32.02
2023-08-17T21:25:56.630Z,32.12
2023-08-17T21:28:25.302Z,32.12
2023-08-17T21:30:54.047Z,31.97
2023-08-17T21:33:22.635Z,31.97
2023-08-17T21:35:55.520Z,31.86
2023-08-17T21:38:24.087Z,31.93
2023-08-17T21:41:00.753Z,32.12
2023-08-17T21:43:33.074Z,32.06
2023-08-17T21:46:02.858Z,32.17
2023-08-17T21:48:31.466Z,32.37
2023-08-17T21:51:00.064Z,32.61
2023-08-17T21:53:28.680Z,32.69
2023-08-17T21:55:57.277Z,32.48
2023-08-17T21:58:25.876Z,32.34
2023-08-17T22:00:54.523Z,32.20
2023-08-17T22:03:23.237Z,31.81
2023-08-17T22:05:52.012Z,31.70
2023-08-17T22:08:20.711Z,31.52
2023-08-17T22:10:50.720Z,31.51
2023-08-17T22:13:19.329Z,31.59
2023-08-17T22:15:48.021Z,31.56
2023-08-17T22:18:16.925Z,31.58
2023-08-17T22:20:45.991Z,31.86
2023-08-17T22:23:15.185Z,31.82
2023-08-17T22:25:43.740Z,31.47
2023-08-17T22:28:12.315Z,31.18
2023-08-17T22:30:40.987Z,31.18
2023-08-17T22:33:09.645Z,31.39
2023-08-17T22:35:38.170Z,31.39
2023-08-17T22:38:06.897Z,31.47
2023-08-17T22:40:35.468Z,31.52
2023-08-17T22:43:04.122Z,31.55
2023-08-17T22:45:32.622Z,31.64
2023-08-17T22:48:01.744Z,31.33
2023-08-17T22:50:30.269Z,31.15
2023-08-17T22:52:59.156Z,30.82
2023-08-17T22:55:27.664Z,30.54
2023-08-17T22:57:56.406Z,30.35
2023-08-17T23:00:24.920Z,30.13
2023-08-17T23:02:53.613Z,30.02
2023-08-17T23:05:22.213Z,29.67
2023-08-17T23:07:50.828Z,29.26
2023-08-17T23:10:19.382Z,29.01
2023-08-17T23:12:48.302Z,29.05
2023-08-17T23:15:16.878Z,29.08
2023-08-17T23:17:46.092Z,28.99
2023-08-17T23:20:15.179Z,28.77
2023-08-17T23:22:44.111Z,28.45
2023-08-17T23:25:12.983Z,28.24
2023-08-17T23:27:42.062Z,28.07
2023-08-17T23:30:12.224Z,28.01
2023-08-17T23:32:40.945Z,27.90
2023-08-17T23:35:10.101Z,27.73
2023-08-17T23:37:38.742Z,27.59
2023-08-17T23:40:09.255Z,27.40
2023-08-17T23:42:37.823Z,27.18
2023-08-17T23:45:07.897Z,27.06
2023-08-17T23:47:36.885Z,26.97
2023-08-17T23:50:07.105Z,26.86
2023-08-17T23:52:35.727Z,26.74
2023-08-17T23:55:05.479Z,26.73
2023-08-17T23:57:34.270Z,26.74
